Terminal Aerodrome Forecast
Issued by NWS Pocatello, ID

Current Version | Previous Version | Text Only | Print | Product List | Glossary On
Versions: 1 2 3 4 5 6 7 8 9 10 11 12 13 14 15 16 17 18
000
FTUS45 KPIH 280520
TAFIDA
TAF
KIDA 280520Z 2806/2906 21009KT P6SM FEW090
     FM281600 23015KT P6SM FEW060 FEW200
     FM290300 21009KT P6SM FEW200=

USA.gov is the U.S. government's official web portal to all federal, state and local government web resources and services.